createdAt,value
2023-02-16T00:00:00.709Z,29.63
2023-02-16T00:03:02.867Z,31.33
2023-02-16T00:06:04.890Z,32.67
2023-02-16T00:09:06.937Z,33.43
2023-02-16T00:12:37.685Z,35.13
2023-02-16T00:15:40.396Z,35.73
2023-02-16T00:18:42.383Z,29.13
2023-02-16T00:21:44.643Z,34.40
2023-02-16T00:24:46.576Z,32.13
2023-02-16T00:27:48.929Z,37.33
2023-02-16T00:30:52.057Z,34.13
2023-02-16T00:33:54.646Z,30.97
2023-02-16T00:36:59.381Z,29.20
2023-02-16T00:40:01.272Z,33.90
2023-02-16T00:43:04.893Z,33.03
2023-02-16T00:46:06.915Z,39.57
2023-02-16T00:49:16.432Z,34.93
2023-02-16T00:52:42.899Z,34.47
2023-02-16T00:55:45.445Z,36.83
2023-02-16T00:58:51.873Z,36.43
2023-02-16T01:01:53.960Z,35.80
2023-02-16T01:04:56.589Z,33.57
2023-02-16T01:08:17.837Z,35.13
2023-02-16T01:11:20.132Z,38.60
2023-02-16T01:14:22.159Z,34.90
2023-02-16T01:17:24.942Z,35.97
2023-02-16T01:20:28.917Z,34.37
2023-02-16T01:23:30.863Z,32.70
2023-02-16T01:26:38.510Z,33.47
2023-02-16T01:29:40.527Z,33.53
2023-02-16T01:32:47.585Z,35.07
2023-02-16T01:35:51.036Z,38.00
2023-02-16T01:38:53.001Z,33.63
2023-02-16T01:42:04.009Z,30.03
2023-02-16T01:45:24.187Z,33.43
2023-02-16T01:48:31.341Z,36.47
2023-02-16T01:51:46.659Z,36.07
2023-02-16T01:54:58.396Z,37.40
2023-02-16T01:58:42.933Z,38.07
2023-02-16T02:01:57.195Z,40.37
2023-02-16T02:05:35.374Z,44.13
2023-02-16T02:09:20.710Z,42.67
2023-02-16T02:12:32.284Z,38.17
2023-02-16T02:15:35.644Z,36.10
2023-02-16T02:18:39.188Z,36.43
2023-02-16T02:22:24.628Z,38.43
2023-02-16T02:26:06.145Z,38.40
2023-02-16T02:29:18.304Z,40.17
2023-02-16T02:33:01.613Z,36.57
2023-02-16T02:36:33.980Z,43.53
2023-02-16T02:39:52.980Z,42.73
2023-02-16T02:43:39.201Z,44.93
2023-02-16T02:46:41.632Z,43.17
2023-02-16T02:49:54.806Z,43.60
2023-02-16T02:53:08.770Z,40.33
2023-02-16T02:56:32.843Z,37.97
2023-02-16T02:59:55.516Z,38.20
2023-02-16T03:03:32.623Z,37.90
2023-02-16T03:06:38.068Z,44.07
2023-02-16T03:09:40.066Z,37.70
2023-02-16T03:12:48.033Z,37.80
2023-02-16T03:15:56.119Z,36.37
2023-02-16T03:19:17.162Z,41.33
2023-02-16T03:22:37.812Z,37.40
2023-02-16T03:25:58.984Z,42.33
2023-02-16T03:29:21.482Z,38.23
2023-02-16T03:32:23.561Z,42.20
2023-02-16T03:35:26.326Z,37.47
2023-02-16T03:38:28.575Z,38.43
2023-02-16T03:41:38.478Z,33.80
2023-02-16T03:44:40.397Z,38.97
2023-02-16T03:47:42.326Z,35.93
2023-02-16T03:50:44.275Z,33.73
2023-02-16T03:53:46.217Z,34.13
2023-02-16T03:56:48.186Z,36.33
2023-02-16T03:59:51.031Z,32.43
2023-02-16T04:02:53.159Z,36.00
2023-02-16T04:05:56.476Z,34.23
2023-02-16T04:08:58.504Z,33.60
2023-02-16T04:12:19.203Z,35.73
2023-02-16T04:15:24.840Z,32.53
2023-02-16T04:18:26.762Z,32.10
2023-02-16T04:21:28.725Z,35.07
2023-02-16T04:24:30.712Z,31.90
2023-02-16T04:27:33.153Z,33.83
2023-02-16T04:30:35.277Z,34.63
2023-02-16T04:33:37.270Z,35.00
2023-02-16T04:36:39.327Z,38.57
2023-02-16T04:39:41.628Z,42.63
2023-02-16T04:42:45.023Z,32.40
2023-02-16T04:45:47.061Z,33.97
2023-02-16T04:48:49.032Z,32.17
2023-02-16T04:51:51.131Z,28.67
2023-02-16T04:54:53.091Z,25.00
2023-02-16T04:57:55.041Z,28.60
2023-02-16T05:00:57.030Z,42.73
2023-02-16T05:03:58.954Z,35.93
2023-02-16T05:07:01.017Z,32.10
2023-02-16T05:10:03.064Z,35.57
2023-02-16T05:13:23.610Z,34.63
2023-02-16T05:16:25.703Z,30.93
2023-02-16T05:19:27.633Z,37.20
2023-02-16T05:22:32.508Z,40.50
2023-02-16T05:25:34.417Z,36.57
2023-02-16T05:28:36.435Z,31.43
2023-02-16T05:31:38.618Z,26.57
2023-02-16T05:34:40.827Z,28.30
2023-02-16T05:37:42.898Z,25.87
2023-02-16T05:40:44.869Z,45.23
2023-02-16T05:43:50.364Z,38.57
2023-02-16T05:46:52.364Z,26.00
2023-02-16T05:49:54.298Z,29.13
2023-02-16T05:52:56.430Z,26.57
2023-02-16T05:55:58.338Z,27.90
2023-02-16T05:59:00.831Z,30.17
2023-02-16T06:02:02.824Z,35.80
2023-02-16T06:05:04.973Z,28.50
2023-02-16T06:08:06.953Z,26.90
2023-02-16T06:11:28.930Z,37.50
2023-02-16T06:14:30.910Z,33.30
2023-02-16T06:17:32.906Z,27.40
2023-02-16T06:20:34.811Z,28.90
2023-02-16T06:23:36.734Z,26.30
2023-02-16T06:26:38.924Z,23.53
2023-02-16T06:29:40.844Z,28.33
2023-02-16T06:32:42.772Z,34.97
2023-02-16T06:35:44.718Z,28.10
2023-02-16T06:38:46.858Z,25.50
2023-02-16T06:41:48.850Z,26.37
2023-02-16T06:44:50.800Z,29.17
2023-02-16T06:47:52.755Z,24.50
2023-02-16T06:50:54.885Z,27.70
2023-02-16T06:53:57.515Z,29.43
2023-02-16T06:56:59.524Z,30.73
2023-02-16T07:00:01.537Z,28.13
2023-02-16T07:03:03.634Z,26.10
2023-02-16T07:06:06.162Z,26.97
2023-02-16T07:09:09.183Z,25.93
2023-02-16T07:12:12.597Z,30.47
2023-02-16T07:15:14.637Z,27.97
2023-02-16T07:18:16.739Z,34.93
2023-02-16T07:21:18.952Z,25.80
2023-02-16T07:24:21.125Z,37.57
2023-02-16T07:27:24.040Z,24.80
2023-02-16T07:30:25.980Z,29.70
2023-02-16T07:33:27.999Z,27.63
2023-02-16T07:36:30.032Z,34.83
2023-02-16T07:39:32.210Z,33.10
2023-02-16T07:42:34.183Z,37.53
2023-02-16T07:45:38.353Z,29.83
2023-02-16T07:48:40.343Z,27.57
2023-02-16T07:51:42.448Z,29.67
2023-02-16T07:54:44.464Z,33.80
2023-02-16T07:57:49.593Z,34.73
2023-02-16T08:00:51.585Z,31.10
2023-02-16T08:03:54.073Z,30.73
2023-02-16T08:06:56.012Z,28.50
2023-02-16T08:09:57.964Z,48.67
2023-02-16T08:13:00.114Z,35.40
2023-02-16T08:16:02.297Z,25.80
2023-02-16T08:19:04.872Z,26.77
2023-02-16T08:22:08.162Z,30.10
2023-02-16T08:25:10.176Z,29.63
2023-02-16T08:28:14.935Z,28.67
2023-02-16T08:31:23.519Z,25.97
2023-02-16T08:34:26.587Z,27.23
2023-02-16T08:37:28.901Z,31.27
2023-02-16T08:40:30.941Z,24.17
2023-02-16T08:43:34.106Z,27.30
2023-02-16T08:46:40.565Z,26.57
2023-02-16T08:49:44.376Z,29.13
2023-02-16T08:52:47.235Z,25.87
2023-02-16T08:55:56.538Z,24.33
2023-02-16T08:58:59.316Z,30.67
2023-02-16T09:02:01.523Z,26.03
2023-02-16T09:05:03.593Z,30.40
2023-02-16T09:08:05.602Z,29.60
2023-02-16T09:11:11.777Z,32.70
2023-02-16T09:14:14.282Z,30.70
2023-02-16T09:17:16.736Z,33.77
2023-02-16T09:20:20.647Z,33.00
2023-02-16T09:23:22.690Z,32.27
2023-02-16T09:26:25.780Z,31.63
2023-02-16T09:29:27.741Z,32.60
2023-02-16T09:32:30.834Z,37.83
2023-02-16T09:35:32.899Z,37.17
2023-02-16T09:38:35.361Z,34.93
2023-02-16T09:41:55.439Z,33.17
2023-02-16T09:45:25.692Z,35.30
2023-02-16T09:48:43.051Z,32.57
2023-02-16T09:51:45.099Z,36.07
2023-02-16T09:54:54.637Z,37.43
2023-02-16T09:58:21.687Z,31.03
2023-02-16T10:01:40.142Z,35.17
2023-02-16T10:04:53.505Z,32.87
2023-02-16T10:08:00.267Z,32.90
2023-02-16T10:11:33.327Z,36.77
2023-02-16T10:14:41.397Z,37.10
2023-02-16T10:17:50.248Z,34.97
2023-02-16T10:20:56.842Z,38.93
2023-02-16T10:24:03.287Z,36.07
2023-02-16T10:27:11.916Z,38.13
2023-02-16T10:30:23.375Z,40.90
2023-02-16T10:33:28.417Z,43.10
2023-02-16T10:36:42.202Z,37.57
2023-02-16T10:40:30.440Z,42.87
2023-02-16T10:44:01.471Z,42.17
2023-02-16T10:47:06.463Z,40.60
2023-02-16T10:50:22.189Z,42.13
2023-02-16T10:53:46.718Z,49.40
2023-02-16T10:56:59.794Z,43.83
2023-02-16T11:00:13.600Z,43.40
2023-02-16T11:03:16.121Z,43.40
2023-02-16T11:06:21.999Z,38.50
2023-02-16T11:09:28.621Z,42.73
2023-02-16T11:12:34.372Z,41.77
2023-02-16T11:15:39.510Z,40.20
2023-02-16T11:18:45.368Z,40.37
2023-02-16T11:21:50.550Z,40.27
2023-02-16T11:24:52.522Z,40.73
2023-02-16T11:27:58.176Z,34.87
2023-02-16T11:31:05.499Z,41.57
2023-02-16T11:34:31.699Z,36.07
2023-02-16T11:37:34.358Z,37.27
2023-02-16T11:40:36.357Z,36.43
2023-02-16T11:43:42.472Z,36.30
2023-02-16T11:46:44.470Z,33.80
2023-02-16T11:49:46.488Z,33.67
2023-02-16T11:52:51.107Z,35.77
2023-02-16T11:56:13.090Z,30.50
2023-02-16T11:59:22.058Z,27.70
2023-02-16T12:02:26.958Z,32.33
2023-02-16T12:05:54.796Z,29.47
2023-02-16T12:09:15.129Z,30.73
2023-02-16T12:12:32.273Z,27.17
2023-02-16T12:15:42.979Z,29.30
2023-02-16T12:18:53.842Z,32.10
2023-02-16T12:22:27.839Z,32.83
2023-02-16T12:26:03.554Z,30.27
2023-02-16T12:29:45.193Z,29.33
2023-02-16T12:32:48.024Z,31.73
2023-02-16T12:36:12.759Z,30.13
2023-02-16T12:39:23.418Z,34.33
2023-02-16T12:42:44.218Z,32.27
2023-02-16T12:45:47.410Z,35.17
2023-02-16T12:48:57.160Z,33.87
2023-02-16T12:52:08.639Z,33.80
2023-02-16T12:55:31.187Z,36.23
2023-02-16T12:58:46.674Z,33.93
2023-02-16T13:01:52.503Z,34.70
2023-02-16T13:05:10.836Z,38.00
2023-02-16T13:08:39.371Z,36.40
2023-02-16T13:11:49.961Z,33.77
2023-02-16T13:15:20.796Z,37.60
2023-02-16T13:18:28.576Z,38.70
2023-02-16T13:21:54.578Z,32.27
2023-02-16T13:25:21.775Z,35.97
2023-02-16T13:28:38.244Z,39.10
2023-02-16T13:32:09.234Z,35.13
2023-02-16T13:35:26.040Z,32.37
2023-02-16T13:38:52.884Z,29.23
2023-02-16T13:42:06.732Z,28.30
2023-02-16T13:45:17.400Z,34.77
2023-02-16T13:48:22.280Z,35.13
2023-02-16T13:51:27.539Z,19.83
2023-02-16T13:54:35.902Z,32.27
2023-02-16T13:57:50.705Z,27.53
2023-02-16T14:00:53.417Z,36.10
2023-02-16T14:03:55.399Z,27.53
2023-02-16T14:07:10.040Z,25.73
2023-02-16T14:10:14.494Z,14.90
2023-02-16T14:13:17.226Z,13.77
2023-02-16T14:16:20.978Z,14.60
2023-02-16T14:19:26.474Z,12.00
2023-02-16T14:22:34.561Z,11.83
2023-02-16T14:25:38.681Z,13.13
2023-02-16T14:28:55.548Z,12.87
2023-02-16T14:32:10.379Z,13.87
2023-02-16T14:35:40.007Z,13.70
2023-02-16T14:38:41.906Z,12.07
2023-02-16T14:41:44.058Z,11.10
2023-02-16T14:45:06.265Z,11.50
2023-02-16T14:48:30.608Z,13.23
2023-02-16T14:51:44.360Z,14.87
2023-02-16T14:55:18.424Z,12.60
2023-02-16T14:58:31.986Z,13.87
2023-02-16T15:01:41.893Z,13.70
2023-02-16T15:04:43.920Z,16.33
2023-02-16T15:07:50.687Z,11.60
2023-02-16T15:10:58.533Z,11.33
2023-02-16T15:14:08.362Z,11.83
2023-02-16T15:17:17.431Z,12.20
2023-02-16T15:20:33.448Z,14.70
2023-02-16T15:23:36.512Z,10.83
2023-02-16T15:26:39.050Z,14.73
2023-02-16T15:29:41.192Z,12.80
2023-02-16T15:32:52.596Z,10.60
2023-02-16T15:36:00.493Z,10.40
2023-02-16T15:39:28.281Z,11.60
2023-02-16T15:42:34.352Z,12.87
2023-02-16T15:45:42.188Z,11.93
2023-02-16T15:48:44.501Z,13.93
2023-02-16T15:51:46.771Z,15.17
2023-02-16T15:54:50.377Z,13.40
2023-02-16T15:57:53.981Z,13.00
2023-02-16T16:00:56.404Z,14.07
2023-02-16T16:04:01.368Z,11.37
2023-02-16T16:07:08.943Z,15.10
2023-02-16T16:10:22.975Z,14.63
2023-02-16T16:13:29.000Z,14.90
2023-02-16T16:16:31.273Z,15.70
2023-02-16T16:19:38.443Z,15.57
2023-02-16T16:22:44.615Z,12.77
2023-02-16T16:25:49.537Z,14.43
2023-02-16T16:28:53.392Z,12.13
2023-02-16T16:31:57.361Z,11.70
2023-02-16T16:35:00.265Z,12.07
2023-02-16T16:38:03.921Z,10.87
2023-02-16T16:41:07.738Z,10.13
2023-02-16T16:44:29.030Z,13.87
2023-02-16T16:47:43.231Z,16.97
2023-02-16T16:50:47.527Z,11.77
2023-02-16T16:53:55.803Z,9.93
2023-02-16T16:57:00.501Z,10.73
2023-02-16T17:00:04.293Z,12.07
2023-02-16T17:03:16.001Z,13.43
2023-02-16T17:06:20.601Z,13.23
2023-02-16T17:09:24.631Z,14.37
2023-02-16T17:12:28.889Z,11.73
2023-02-16T17:15:51.894Z,9.73
2023-02-16T17:18:54.996Z,10.50
2023-02-16T17:21:57.743Z,8.73
2023-02-16T17:25:00.543Z,12.03
2023-02-16T17:28:05.084Z,12.80
2023-02-16T17:31:09.733Z,10.17
2023-02-16T17:34:12.325Z,9.10
2023-02-16T17:37:15.006Z,11.10
2023-02-16T17:40:20.528Z,11.37
2023-02-16T17:43:25.602Z,12.37
2023-02-16T17:46:29.515Z,12.17
2023-02-16T17:49:35.753Z,11.27
2023-02-16T17:52:39.500Z,12.90
2023-02-16T17:55:42.268Z,14.13
2023-02-16T17:58:45.829Z,14.90
2023-02-16T18:01:48.715Z,10.73
2023-02-16T18:04:51.641Z,12.90
2023-02-16T18:08:00.179Z,14.70
2023-02-16T18:11:04.503Z,16.80
2023-02-16T18:14:07.449Z,13.13
2023-02-16T18:17:15.657Z,12.00
2023-02-16T18:20:25.014Z,13.97
2023-02-16T18:23:28.920Z,13.60
2023-02-16T18:26:36.510Z,14.30
2023-02-16T18:29:41.653Z,13.73
2023-02-16T18:32:57.228Z,12.43
2023-02-16T18:36:02.676Z,12.10
2023-02-16T18:39:07.865Z,15.43
2023-02-16T18:42:11.434Z,17.50
2023-02-16T18:45:17.163Z,13.50
2023-02-16T18:48:24.466Z,14.20
2023-02-16T18:51:30.074Z,14.00
2023-02-16T18:54:33.309Z,15.60
2023-02-16T18:57:37.415Z,14.03
2023-02-16T19:00:42.985Z,15.07
2023-02-16T19:03:46.585Z,13.50
2023-02-16T19:06:50.101Z,12.17
2023-02-16T19:09:53.583Z,12.57
2023-02-16T19:12:57.044Z,12.90
2023-02-16T19:16:00.540Z,11.33
2023-02-16T19:19:04.264Z,12.27
2023-02-16T19:22:08.265Z,13.07
2023-02-16T19:25:12.306Z,10.60
2023-02-16T19:28:15.682Z,10.90
2023-02-16T19:31:25.071Z,10.93
2023-02-16T19:34:28.269Z,11.53
2023-02-16T19:37:31.440Z,11.80
2023-02-16T19:40:35.003Z,9.80
2023-02-16T19:43:40.044Z,11.50
2023-02-16T19:46:44.678Z,11.10
2023-02-16T19:49:47.318Z,11.10
2023-02-16T19:52:50.381Z,10.57
2023-02-16T19:55:56.665Z,12.43
2023-02-16T19:59:02.804Z,9.80
2023-02-16T20:02:06.379Z,9.83
2023-02-16T20:05:10.511Z,14.67
2023-02-16T20:08:15.226Z,8.13
2023-02-16T20:11:21.563Z,10.50
2023-02-16T20:14:24.763Z,12.53
2023-02-16T20:17:27.364Z,10.50
2023-02-16T20:20:30.396Z,10.70
2023-02-16T20:23:35.017Z,9.73
2023-02-16T20:26:46.690Z,8.03
2023-02-16T20:29:50.005Z,9.70
2023-02-16T20:32:56.351Z,7.37
2023-02-16T20:35:59.835Z,7.50
2023-02-16T20:39:02.789Z,9.57
2023-02-16T20:42:06.032Z,6.43
2023-02-16T20:45:10.076Z,8.40
2023-02-16T20:48:12.952Z,7.33
2023-02-16T20:51:17.010Z,8.00
2023-02-16T20:54:19.673Z,10.17
2023-02-16T20:57:27.130Z,9.57
2023-02-16T21:00:30.722Z,8.80
2023-02-16T21:03:34.139Z,9.00
2023-02-16T21:06:37.972Z,10.27
2023-02-16T21:09:42.798Z,9.13
2023-02-16T21:12:49.438Z,7.60
2023-02-16T21:15:57.661Z,9.67
2023-02-16T21:19:00.412Z,8.13
2023-02-16T21:22:02.938Z,9.63
2023-02-16T21:25:06.154Z,8.50
2023-02-16T21:28:09.119Z,10.00
2023-02-16T21:31:15.054Z,8.70
2023-02-16T21:34:17.655Z,8.07
2023-02-16T21:37:20.344Z,9.50
2023-02-16T21:40:41.742Z,8.23
2023-02-16T21:43:44.360Z,6.53
2023-02-16T21:46:48.222Z,6.67
2023-02-16T21:49:50.727Z,8.60
2023-02-16T21:52:53.526Z,8.03
2023-02-16T21:56:14.505Z,7.70
2023-02-16T21:59:18.789Z,8.67
2023-02-16T22:02:20.722Z,6.63
2023-02-16T22:05:22.670Z,7.30
2023-02-16T22:08:24.658Z,5.80
2023-02-16T22:11:26.724Z,6.67
2023-02-16T22:14:28.720Z,6.43
2023-02-16T22:17:32.353Z,5.97
2023-02-16T22:20:34.353Z,6.60
2023-02-16T22:23:37.841Z,6.03
2023-02-16T22:26:39.962Z,4.93
2023-02-16T22:29:41.905Z,5.73
2023-02-16T22:32:43.929Z,5.67
2023-02-16T22:35:46.016Z,4.63
2023-02-16T22:38:48.883Z,4.63
2023-02-16T22:41:51.394Z,4.93
2023-02-16T22:44:53.384Z,4.30
2023-02-16T22:47:55.333Z,4.90
2023-02-16T22:50:59.172Z,6.50
2023-02-16T22:54:02.160Z,4.70
2023-02-16T22:57:04.485Z,6.00
2023-02-16T23:00:10.135Z,5.30
2023-02-16T23:03:12.345Z,5.40
2023-02-16T23:06:17.685Z,4.80
2023-02-16T23:09:22.001Z,5.17
2023-02-16T23:12:24.438Z,4.37
2023-02-16T23:15:26.441Z,6.33
2023-02-16T23:18:28.502Z,4.93
2023-02-16T23:21:32.961Z,7.80
2023-02-16T23:24:34.989Z,5.33
2023-02-16T23:27:37.025Z,5.30
2023-02-16T23:30:43.731Z,4.83
2023-02-16T23:33:45.949Z,4.77
2023-02-16T23:36:47.952Z,5.37
2023-02-16T23:39:49.901Z,6.83
2023-02-16T23:42:51.813Z,6.37
2023-02-16T23:45:54.240Z,5.63
2023-02-16T23:48:56.227Z,9.50
2023-02-16T23:51:58.197Z,9.47
2023-02-16T23:55:00.142Z,7.13
2023-02-16T23:58:02.392Z,8.77
